sensor_id;sensor_type;location;lat;lon;timestamp;P1;durP1;ratioP1;P2;durP2;ratioP2
57107;SDS011;42987;52.916;6.542;2022-08-11T00:00:03;7.63;;;5.35;;
57107;SDS011;42987;52.916;6.542;2022-08-11T00:02:49;6.80;;;6.20;;
57107;SDS011;42987;52.916;6.542;2022-08-11T00:05:18;8.73;;;6.10;;
57107;SDS011;42987;52.916;6.542;2022-08-11T00:07:52;7.05;;;6.35;;
57107;SDS011;42987;52.916;6.542;2022-08-11T00:10:21;7.05;;;5.95;;
57107;SDS011;42987;52.916;6.542;2022-08-11T00:15:28;8.60;;;6.40;;
57107;SDS011;42987;52.916;6.542;2022-08-11T00:24:46;7.65;;;6.65;;
57107;SDS011;42987;52.916;6.542;2022-08-11T00:27:14;7.80;;;6.57;;
57107;SDS011;42987;52.916;6.542;2022-08-11T00:29:39;8.38;;;6.40;;
57107;SDS011;42987;52.916;6.542;2022-08-11T00:32:11;7.43;;;6.68;;
57107;SDS011;42987;52.916;6.542;2022-08-11T00:34:39;9.18;;;7.18;;
57107;SDS011;42987;52.916;6.542;2022-08-11T00:37:17;9.23;;;7.55;;
57107;SDS011;42987;52.916;6.542;2022-08-11T00:39:46;8.05;;;6.88;;
57107;SDS011;42987;52.916;6.542;2022-08-11T00:42:23;9.48;;;8.07;;
57107;SDS011;42987;52.916;6.542;2022-08-11T00:50:36;8.50;;;7.70;;
57107;SDS011;42987;52.916;6.542;2022-08-11T01:02:11;11.20;;;8.65;;
57107;SDS011;42987;52.916;6.542;2022-08-11T01:58:12;11.15;;;10.05;;
57107;SDS011;42987;52.916;6.542;2022-08-11T02:00:57;10.05;;;9.13;;
57107;SDS011;42987;52.916;6.542;2022-08-11T02:06:37;10.30;;;9.18;;
57107;SDS011;42987;52.916;6.542;2022-08-11T02:20:47;8.55;;;7.75;;
57107;SDS011;42987;52.916;6.542;2022-08-11T02:23:51;12.25;;;11.05;;
57107;SDS011;42987;52.916;6.542;2022-08-11T02:26:25;10.15;;;8.77;;
57107;SDS011;42987;52.916;6.542;2022-08-11T02:31:44;13.73;;;12.32;;
57107;SDS011;42987;52.916;6.542;2022-08-11T02:43:08;12.05;;;10.85;;
57107;SDS011;42987;52.916;6.542;2022-08-11T02:45:52;12.18;;;10.77;;
57107;SDS011;42987;52.916;6.542;2022-08-11T02:52:04;12.45;;;11.27;;
57107;SDS011;42987;52.916;6.542;2022-08-11T03:00:09;13.30;;;11.82;;
57107;SDS011;42987;52.916;6.542;2022-08-11T03:05:21;14.00;;;12.02;;
57107;SDS011;42987;52.916;6.542;2022-08-11T03:13:58;12.02;;;10.73;;
57107;SDS011;42987;52.916;6.542;2022-08-11T03:20:10;14.13;;;12.68;;
57107;SDS011;42987;52.916;6.542;2022-08-11T03:22:50;14.30;;;12.80;;
57107;SDS011;42987;52.916;6.542;2022-08-11T03:25:44;16.00;;;14.30;;
57107;SDS011;42987;52.916;6.542;2022-08-11T03:28:33;16.33;;;14.68;;
57107;SDS011;42987;52.916;6.542;2022-08-11T03:31:22;18.83;;;16.85;;
57107;SDS011;42987;52.916;6.542;2022-08-11T03:33:56;17.02;;;15.27;;
57107;SDS011;42987;52.916;6.542;2022-08-11T03:39:23;19.23;;;15.95;;
57107;SDS011;42987;52.916;6.542;2022-08-11T03:42:15;16.42;;;14.63;;
57107;SDS011;42987;52.916;6.542;2022-08-11T03:50:35;20.30;;;18.10;;
57107;SDS011;42987;52.916;6.542;2022-08-11T03:53:41;18.00;;;16.20;;
57107;SDS011;42987;52.916;6.542;2022-08-11T03:56:17;22.25;;;18.45;;
57107;SDS011;42987;52.916;6.542;2022-08-11T04:19:11;18.63;;;16.83;;
57107;SDS011;42987;52.916;6.542;2022-08-11T04:30:27;20.15;;;18.05;;
57107;SDS011;42987;52.916;6.542;2022-08-11T04:38:56;23.17;;;20.75;;
57107;SDS011;42987;52.916;6.542;2022-08-11T04:51:05;22.33;;;20.02;;
57107;SDS011;42987;52.916;6.542;2022-08-11T04:54:04;23.00;;;20.73;;
57107;SDS011;42987;52.916;6.542;2022-08-11T04:57:02;20.65;;;18.65;;
57107;SDS011;42987;52.916;6.542;2022-08-11T05:14:28;22.52;;;20.23;;
57107;SDS011;42987;52.916;6.542;2022-08-11T05:17:24;23.27;;;21.08;;
57107;SDS011;42987;52.916;6.542;2022-08-11T05:20:17;22.15;;;19.95;;
57107;SDS011;42987;52.916;6.542;2022-08-11T05:23:04;22.30;;;20.08;;
57107;SDS011;42987;52.916;6.542;2022-08-11T05:25:51;20.80;;;18.73;;
57107;SDS011;42987;52.916;6.542;2022-08-11T05:28:41;21.05;;;18.95;;
57107;SDS011;42987;52.916;6.542;2022-08-11T05:31:59;21.67;;;19.60;;
57107;SDS011;42987;52.916;6.542;2022-08-11T05:34:46;19.85;;;17.95;;
57107;SDS011;42987;52.916;6.542;2022-08-11T05:39:59;20.90;;;18.80;;
57107;SDS011;42987;52.916;6.542;2022-08-11T05:43:02;19.55;;;17.70;;
57107;SDS011;42987;52.916;6.542;2022-08-11T05:46:02;19.02;;;16.88;;
57107;SDS011;42987;52.916;6.542;2022-08-11T05:48:49;18.17;;;16.38;;
57107;SDS011;42987;52.916;6.542;2022-08-11T05:51:35;17.50;;;15.80;;
57107;SDS011;42987;52.916;6.542;2022-08-11T05:54:25;18.73;;;16.88;;
57107;SDS011;42987;52.916;6.542;2022-08-11T05:57:24;16.35;;;14.75;;
57107;SDS011;42987;52.916;6.542;2022-08-11T05:59:59;17.35;;;15.55;;
57107;SDS011;42987;52.916;6.542;2022-08-11T06:02:29;15.13;;;13.73;;
57107;SDS011;42987;52.916;6.542;2022-08-11T06:04:59;16.55;;;14.85;;
57107;SDS011;42987;52.916;6.542;2022-08-11T06:07:26;16.10;;;14.30;;
57107;SDS011;42987;52.916;6.542;2022-08-11T06:09:54;15.23;;;13.10;;
57107;SDS011;42987;52.916;6.542;2022-08-11T06:14:55;14.07;;;12.48;;
57107;SDS011;42987;52.916;6.542;2022-08-11T06:17:22;13.63;;;12.23;;
57107;SDS011;42987;52.916;6.542;2022-08-11T06:19:50;12.27;;;11.02;;
57107;SDS011;42987;52.916;6.542;2022-08-11T06:22:22;12.18;;;10.98;;
57107;SDS011;42987;52.916;6.542;2022-08-11T06:24:55;12.60;;;11.30;;
57107;SDS011;42987;52.916;6.542;2022-08-11T06:27:23;11.35;;;10.15;;
57107;SDS011;42987;52.916;6.542;2022-08-11T06:29:54;10.88;;;9.73;;
57107;SDS011;42987;52.916;6.542;2022-08-11T06:32:31;12.13;;;9.57;;
57107;SDS011;42987;52.916;6.542;2022-08-11T06:40:25;10.77;;;8.93;;
57107;SDS011;42987;52.916;6.542;2022-08-11T06:46:37;10.48;;;8.05;;
57107;SDS011;42987;52.916;6.542;2022-08-11T06:49:09;9.65;;;7.00;;
57107;SDS011;42987;52.916;6.542;2022-08-11T06:51:59;8.40;;;6.80;;
57107;SDS011;42987;52.916;6.542;2022-08-11T06:54:29;8.98;;;6.45;;
57107;SDS011;42987;52.916;6.542;2022-08-11T06:56:59;7.72;;;6.03;;
57107;SDS011;42987;52.916;6.542;2022-08-11T06:59:46;10.77;;;6.45;;
57107;SDS011;42987;52.916;6.542;2022-08-11T07:02:47;7.10;;;5.65;;
57107;SDS011;42987;52.916;6.542;2022-08-11T07:14:29;11.07;;;4.25;;
57107;SDS011;42987;52.916;6.542;2022-08-11T07:17:15;18.05;;;4.68;;
57107;SDS011;42987;52.916;6.542;2022-08-11T07:19:48;10.27;;;3.70;;
57107;SDS011;42987;52.916;6.542;2022-08-11T07:22:42;7.80;;;3.95;;
57107;SDS011;42987;52.916;6.542;2022-08-11T07:25:32;7.85;;;3.63;;
57107;SDS011;42987;52.916;6.542;2022-08-11T07:28:33;3.97;;;2.70;;
57107;SDS011;42987;52.916;6.542;2022-08-11T07:33:52;4.45;;;2.92;;
57107;SDS011;42987;52.916;6.542;2022-08-11T07:36:26;5.30;;;2.50;;
57107;SDS011;42987;52.916;6.542;2022-08-11T07:38:54;3.80;;;2.28;;
57107;SDS011;42987;52.916;6.542;2022-08-11T07:41:22;4.22;;;2.20;;
57107;SDS011;42987;52.916;6.542;2022-08-11T07:43:50;4.20;;;2.47;;
57107;SDS011;42987;52.916;6.542;2022-08-11T07:46:19;3.47;;;2.30;;
57107;SDS011;42987;52.916;6.542;2022-08-11T07:49:06;3.58;;;1.98;;
57107;SDS011;42987;52.916;6.542;2022-08-11T07:51:52;4.97;;;2.63;;
57107;SDS011;42987;52.916;6.542;2022-08-11T07:54:38;5.45;;;2.08;;
57107;SDS011;42987;52.916;6.542;2022-08-11T07:57:07;3.67;;;1.67;;
57107;SDS011;42987;52.916;6.542;2022-08-11T07:59:52;6.47;;;1.88;;
57107;SDS011;42987;52.916;6.542;2022-08-11T08:02:39;5.65;;;1.50;;
57107;SDS011;42987;52.916;6.542;2022-08-11T08:05:26;5.75;;;1.95;;
57107;SDS011;42987;52.916;6.542;2022-08-11T08:08:11;4.35;;;1.90;;
57107;SDS011;42987;52.916;6.542;2022-08-11T08:10:58;5.15;;;2.00;;
57107;SDS011;42987;52.916;6.542;2022-08-11T08:13:43;3.47;;;1.88;;
57107;SDS011;42987;52.916;6.542;2022-08-11T08:16:28;2.80;;;2.00;;
57107;SDS011;42987;52.916;6.542;2022-08-11T08:19:18;3.72;;;1.90;;
57107;SDS011;42987;52.916;6.542;2022-08-11T08:21:45;4.15;;;1.58;;
57107;SDS011;42987;52.916;6.542;2022-08-11T08:24:12;3.05;;;1.98;;
57107;SDS011;42987;52.916;6.542;2022-08-11T08:26:39;3.95;;;1.60;;
57107;SDS011;42987;52.916;6.542;2022-08-11T08:29:22;6.80;;;1.60;;
57107;SDS011;42987;52.916;6.542;2022-08-11T08:32:08;4.20;;;1.42;;
57107;SDS011;42987;52.916;6.542;2022-08-11T08:34:41;6.78;;;1.60;;
57107;SDS011;42987;52.916;6.542;2022-08-11T08:37:08;6.63;;;1.75;;
57107;SDS011;42987;52.916;6.542;2022-08-11T08:39:34;5.50;;;1.73;;
57107;SDS011;42987;52.916;6.542;2022-08-11T08:44:40;2.25;;;1.55;;
57107;SDS011;42987;52.916;6.542;2022-08-11T08:47:13;3.03;;;1.50;;
57107;SDS011;42987;52.916;6.542;2022-08-11T08:49:43;5.82;;;1.70;;
57107;SDS011;42987;52.916;6.542;2022-08-11T08:52:13;4.32;;;1.92;;
57107;SDS011;42987;52.916;6.542;2022-08-11T08:54:42;1.85;;;1.40;;
57107;SDS011;42987;52.916;6.542;2022-08-11T08:57:10;3.95;;;1.30;;
57107;SDS011;42987;52.916;6.542;2022-08-11T08:59:43;2.95;;;1.55;;
57107;SDS011;42987;52.916;6.542;2022-08-11T09:02:11;8.25;;;1.80;;
57107;SDS011;42987;52.916;6.542;2022-08-11T09:04:38;2.80;;;2.08;;
57107;SDS011;42987;52.916;6.542;2022-08-11T09:07:09;2.83;;;1.23;;
57107;SDS011;42987;52.916;6.542;2022-08-11T09:09:41;3.83;;;1.60;;
57107;SDS011;42987;52.916;6.542;2022-08-11T09:12:12;4.70;;;2.10;;
57107;SDS011;42987;52.916;6.542;2022-08-11T09:14:39;2.42;;;1.50;;
57107;SDS011;42987;52.916;6.542;2022-08-11T09:17:28;5.25;;;2.25;;
57107;SDS011;42987;52.916;6.542;2022-08-11T09:20:19;2.58;;;1.70;;
57107;SDS011;42987;52.916;6.542;2022-08-11T09:22:49;6.15;;;1.80;;
57107;SDS011;42987;52.916;6.542;2022-08-11T09:28:23;6.30;;;1.88;;
57107;SDS011;42987;52.916;6.542;2022-08-11T09:30:53;3.97;;;2.20;;
57107;SDS011;42987;52.916;6.542;2022-08-11T09:33:21;3.25;;;2.00;;
57107;SDS011;42987;52.916;6.542;2022-08-11T09:35:49;4.57;;;1.98;;
57107;SDS011;42987;52.916;6.542;2022-08-11T09:38:17;4.80;;;1.80;;
57107;SDS011;42987;52.916;6.542;2022-08-11T09:41:06;3.40;;;2.00;;
57107;SDS011;42987;52.916;6.542;2022-08-11T09:43:41;3.77;;;1.67;;
57107;SDS011;42987;52.916;6.542;2022-08-11T09:46:28;4.50;;;2.00;;
57107;SDS011;42987;52.916;6.542;2022-08-11T09:48:56;5.63;;;1.85;;
57107;SDS011;42987;52.916;6.542;2022-08-11T09:51:24;7.13;;;1.67;;
57107;SDS011;42987;52.916;6.542;2022-08-11T09:53:55;4.93;;;1.98;;
57107;SDS011;42987;52.916;6.542;2022-08-11T09:56:23;4.95;;;1.65;;
57107;SDS011;42987;52.916;6.542;2022-08-11T09:59:11;5.20;;;1.50;;
57107;SDS011;42987;52.916;6.542;2022-08-11T10:01:38;3.38;;;1.50;;
57107;SDS011;42987;52.916;6.542;2022-08-11T10:04:23;3.38;;;1.70;;
57107;SDS011;42987;52.916;6.542;2022-08-11T10:06:55;3.47;;;1.70;;
57107;SDS011;42987;52.916;6.542;2022-08-11T10:09:28;5.72;;;1.67;;
57107;SDS011;42987;52.916;6.542;2022-08-11T10:11:57;3.90;;;1.67;;
57107;SDS011;42987;52.916;6.542;2022-08-11T10:14:28;2.15;;;1.50;;
57107;SDS011;42987;52.916;6.542;2022-08-11T10:17:14;5.32;;;2.00;;
57107;SDS011;42987;52.916;6.542;2022-08-11T10:19:44;6.65;;;1.77;;
57107;SDS011;42987;52.916;6.542;2022-08-11T10:22:12;4.63;;;1.65;;
57107;SDS011;42987;52.916;6.542;2022-08-11T10:24:58;3.03;;;1.60;;
57107;SDS011;42987;52.916;6.542;2022-08-11T10:27:44;3.55;;;1.70;;
57107;SDS011;42987;52.916;6.542;2022-08-11T10:30:12;3.57;;;1.77;;
57107;SDS011;42987;52.916;6.542;2022-08-11T10:32:57;4.00;;;1.70;;
57107;SDS011;42987;52.916;6.542;2022-08-11T10:35:42;3.15;;;1.48;;
57107;SDS011;42987;52.916;6.542;2022-08-11T10:38:10;2.67;;;1.50;;
57107;SDS011;42987;52.916;6.542;2022-08-11T10:40:40;4.43;;;1.88;;
57107;SDS011;42987;52.916;6.542;2022-08-11T10:43:10;4.28;;;1.35;;
57107;SDS011;42987;52.916;6.542;2022-08-11T10:45:38;3.13;;;1.60;;
57107;SDS011;42987;52.916;6.542;2022-08-11T10:48:25;2.88;;;1.40;;
57107;SDS011;42987;52.916;6.542;2022-08-11T10:50:56;5.20;;;1.60;;
57107;SDS011;42987;52.916;6.542;2022-08-11T10:53:39;3.38;;;1.20;;
57107;SDS011;42987;52.916;6.542;2022-08-11T10:56:30;5.88;;;1.40;;
57107;SDS011;42987;52.916;6.542;2022-08-11T10:59:20;3.40;;;1.38;;
57107;SDS011;42987;52.916;6.542;2022-08-11T11:01:51;2.42;;;1.40;;
57107;SDS011;42987;52.916;6.542;2022-08-11T11:09:46;2.97;;;1.33;;
57107;SDS011;42987;52.916;6.542;2022-08-11T11:12:22;5.85;;;1.80;;
57107;SDS011;42987;52.916;6.542;2022-08-11T11:15:18;3.50;;;1.45;;
57107;SDS011;42987;52.916;6.542;2022-08-11T11:18:08;3.55;;;1.50;;
57107;SDS011;42987;52.916;6.542;2022-08-11T11:20:40;3.83;;;1.60;;
57107;SDS011;42987;52.916;6.542;2022-08-11T11:31:44;3.78;;;1.55;;
57107;SDS011;42987;52.916;6.542;2022-08-11T11:35:03;3.88;;;1.40;;
57107;SDS011;42987;52.916;6.542;2022-08-11T11:39:54;2.40;;;1.10;;
57107;SDS011;42987;52.916;6.542;2022-08-11T11:42:21;3.22;;;1.23;;
57107;SDS011;42987;52.916;6.542;2022-08-11T11:44:48;2.45;;;1.13;;
57107;SDS011;42987;52.916;6.542;2022-08-11T11:47:14;3.60;;;1.70;;
57107;SDS011;42987;52.916;6.542;2022-08-11T11:52:18;1.88;;;1.40;;
57107;SDS011;42987;52.916;6.542;2022-08-11T11:54:45;4.05;;;1.40;;
57107;SDS011;42987;52.916;6.542;2022-08-11T11:57:15;3.20;;;1.50;;
57107;SDS011;42987;52.916;6.542;2022-08-11T12:00:03;3.10;;;1.20;;
57107;SDS011;42987;52.916;6.542;2022-08-11T12:02:49;2.72;;;1.52;;
57107;SDS011;42987;52.916;6.542;2022-08-11T12:05:16;4.78;;;1.40;;
57107;SDS011;42987;52.916;6.542;2022-08-11T12:07:45;1.85;;;1.15;;
57107;SDS011;42987;52.916;6.542;2022-08-11T12:10:33;2.45;;;1.20;;
57107;SDS011;42987;52.916;6.542;2022-08-11T12:13:03;3.00;;;1.27;;
57107;SDS011;42987;52.916;6.542;2022-08-11T12:15:52;1.83;;;1.20;;
57107;SDS011;42987;52.916;6.542;2022-08-11T12:18:18;3.00;;;1.35;;
57107;SDS011;42987;52.916;6.542;2022-08-11T12:20:44;3.25;;;1.27;;
57107;SDS011;42987;52.916;6.542;2022-08-11T12:23:11;1.95;;;1.15;;
57107;SDS011;42987;52.916;6.542;2022-08-11T12:25:58;2.33;;;1.27;;
57107;SDS011;42987;52.916;6.542;2022-08-11T12:28:44;3.85;;;1.13;;
57107;SDS011;42987;52.916;6.542;2022-08-11T12:31:13;4.50;;;1.10;;
57107;SDS011;42987;52.916;6.542;2022-08-11T12:33:39;4.18;;;0.90;;
57107;SDS011;42987;52.916;6.542;2022-08-11T12:36:09;3.15;;;1.30;;
57107;SDS011;42987;52.916;6.542;2022-08-11T12:38:43;3.67;;;1.35;;
57107;SDS011;42987;52.916;6.542;2022-08-11T12:41:12;3.45;;;1.30;;
57107;SDS011;42987;52.916;6.542;2022-08-11T12:43:58;3.60;;;1.17;;
57107;SDS011;42987;52.916;6.542;2022-08-11T12:46:44;2.95;;;1.30;;
57107;SDS011;42987;52.916;6.542;2022-08-11T12:49:18;3.67;;;1.58;;
57107;SDS011;42987;52.916;6.542;2022-08-11T12:52:05;2.90;;;1.30;;
57107;SDS011;42987;52.916;6.542;2022-08-11T12:54:41;3.88;;;1.25;;
57107;SDS011;42987;52.916;6.542;2022-08-11T12:57:12;4.72;;;1.23;;
57107;SDS011;42987;52.916;6.542;2022-08-11T13:00:18;2.70;;;1.30;;
57107;SDS011;42987;52.916;6.542;2022-08-11T13:03:03;2.92;;;1.13;;
57107;SDS011;42987;52.916;6.542;2022-08-11T13:05:55;4.05;;;1.60;;
57107;SDS011;42987;52.916;6.542;2022-08-11T13:08:24;3.38;;;1.67;;
57107;SDS011;42987;52.916;6.542;2022-08-11T13:10:51;7.03;;;1.60;;
57107;SDS011;42987;52.916;6.542;2022-08-11T13:13:38;3.65;;;1.50;;
57107;SDS011;42987;52.916;6.542;2022-08-11T13:18:32;2.83;;;1.30;;
57107;SDS011;42987;52.916;6.542;2022-08-11T13:20:58;2.63;;;1.13;;
57107;SDS011;42987;52.916;6.542;2022-08-11T13:23:25;3.22;;;1.33;;
57107;SDS011;42987;52.916;6.542;2022-08-11T13:25:53;3.15;;;1.30;;
57107;SDS011;42987;52.916;6.542;2022-08-11T13:28:23;3.47;;;1.45;;
57107;SDS011;42987;52.916;6.542;2022-08-11T13:30:52;3.22;;;1.30;;
57107;SDS011;42987;52.916;6.542;2022-08-11T13:33:50;3.15;;;1.52;;
57107;SDS011;42987;52.916;6.542;2022-08-11T13:36:20;5.15;;;1.60;;
57107;SDS011;42987;52.916;6.542;2022-08-11T13:38:50;3.17;;;1.83;;
57107;SDS011;42987;52.916;6.542;2022-08-11T13:41:17;3.05;;;1.40;;
57107;SDS011;42987;52.916;6.542;2022-08-11T13:44:03;3.95;;;1.30;;
57107;SDS011;42987;52.916;6.542;2022-08-11T13:46:33;3.63;;;1.33;;
57107;SDS011;42987;52.916;6.542;2022-08-11T13:48:59;5.07;;;1.40;;
57107;SDS011;42987;52.916;6.542;2022-08-11T13:51:30;4.00;;;1.80;;
57107;SDS011;42987;52.916;6.542;2022-08-11T13:54:01;3.88;;;1.70;;
57107;SDS011;42987;52.916;6.542;2022-08-11T13:56:39;3.58;;;1.50;;
57107;SDS011;42987;52.916;6.542;2022-08-11T13:59:08;3.67;;;1.27;;
57107;SDS011;42987;52.916;6.542;2022-08-11T14:01:37;2.80;;;1.40;;
57107;SDS011;42987;52.916;6.542;2022-08-11T14:04:07;3.15;;;1.25;;
57107;SDS011;42987;52.916;6.542;2022-08-11T14:06:40;4.28;;;1.35;;
57107;SDS011;42987;52.916;6.542;2022-08-11T14:09:14;2.88;;;1.00;;
57107;SDS011;42987;52.916;6.542;2022-08-11T14:11:45;3.67;;;1.08;;
57107;SDS011;42987;52.916;6.542;2022-08-11T14:14:31;5.53;;;1.35;;
57107;SDS011;42987;52.916;6.542;2022-08-11T14:19:40;3.78;;;1.30;;
57107;SDS011;42987;52.916;6.542;2022-08-11T14:22:08;2.47;;;1.20;;
57107;SDS011;42987;52.916;6.542;2022-08-11T14:24:38;2.38;;;1.10;;
57107;SDS011;42987;52.916;6.542;2022-08-11T14:27:10;3.28;;;1.15;;
57107;SDS011;42987;52.916;6.542;2022-08-11T14:29:37;2.53;;;1.40;;
57107;SDS011;42987;52.916;6.542;2022-08-11T14:32:09;3.77;;;1.30;;
57107;SDS011;42987;52.916;6.542;2022-08-11T14:34:38;3.80;;;1.30;;
57107;SDS011;42987;52.916;6.542;2022-08-11T14:37:11;2.38;;;1.33;;
57107;SDS011;42987;52.916;6.542;2022-08-11T14:39:46;2.20;;;1.02;;
57107;SDS011;42987;52.916;6.542;2022-08-11T14:42:21;1.50;;;0.93;;
57107;SDS011;42987;52.916;6.542;2022-08-11T14:45:11;4.93;;;2.65;;
57107;SDS011;42987;52.916;6.542;2022-08-11T14:47:59;1.85;;;1.15;;
57107;SDS011;42987;52.916;6.542;2022-08-11T14:50:32;2.70;;;1.10;;
57107;SDS011;42987;52.916;6.542;2022-08-11T14:52:59;3.80;;;1.08;;
57107;SDS011;42987;52.916;6.542;2022-08-11T14:55:29;2.28;;;1.08;;
57107;SDS011;42987;52.916;6.542;2022-08-11T14:58:18;3.67;;;1.20;;
57107;SDS011;42987;52.916;6.542;2022-08-11T15:00:51;3.85;;;1.25;;
57107;SDS011;42987;52.916;6.542;2022-08-11T15:03:19;2.75;;;1.15;;
57107;SDS011;42987;52.916;6.542;2022-08-11T15:05:50;2.83;;;1.10;;
57107;SDS011;42987;52.916;6.542;2022-08-11T15:08:18;5.00;;;1.40;;
57107;SDS011;42987;52.916;6.542;2022-08-11T15:10:45;2.17;;;1.30;;
57107;SDS011;42987;52.916;6.542;2022-08-11T15:13:16;3.15;;;1.20;;
57107;SDS011;42987;52.916;6.542;2022-08-11T15:18:27;4.10;;;1.40;;
57107;SDS011;42987;52.916;6.542;2022-08-11T15:20:53;3.53;;;1.33;;
57107;SDS011;42987;52.916;6.542;2022-08-11T15:23:39;2.28;;;1.30;;
57107;SDS011;42987;52.916;6.542;2022-08-11T15:26:30;4.68;;;1.08;;
57107;SDS011;42987;52.916;6.542;2022-08-11T15:29:19;3.25;;;1.02;;
57107;SDS011;42987;52.916;6.542;2022-08-11T15:32:07;2.42;;;1.20;;
57107;SDS011;42987;52.916;6.542;2022-08-11T15:34:58;2.05;;;1.38;;
57107;SDS011;42987;52.916;6.542;2022-08-11T15:37:44;2.08;;;1.05;;
57107;SDS011;42987;52.916;6.542;2022-08-11T15:40:18;3.78;;;1.20;;
57107;SDS011;42987;52.916;6.542;2022-08-11T15:46:13;5.00;;;1.42;;
57107;SDS011;42987;52.916;6.542;2022-08-11T15:49:17;4.07;;;1.30;;
57107;SDS011;42987;52.916;6.542;2022-08-11T15:54:34;3.25;;;1.30;;
57107;SDS011;42987;52.916;6.542;2022-08-11T15:57:04;2.83;;;1.13;;
57107;SDS011;42987;52.916;6.542;2022-08-11T16:02:20;3.03;;;1.25;;
57107;SDS011;42987;52.916;6.542;2022-08-11T16:05:07;3.67;;;1.20;;
57107;SDS011;42987;52.916;6.542;2022-08-11T16:07:39;4.63;;;1.30;;
57107;SDS011;42987;52.916;6.542;2022-08-11T16:10:13;4.53;;;1.40;;
57107;SDS011;42987;52.916;6.542;2022-08-11T16:12:52;2.60;;;1.40;;
57107;SDS011;42987;52.916;6.542;2022-08-11T16:15:30;3.95;;;1.20;;
57107;SDS011;42987;52.916;6.542;2022-08-11T16:18:20;4.25;;;1.60;;
57107;SDS011;42987;52.916;6.542;2022-08-11T16:20:50;5.47;;;1.40;;
57107;SDS011;42987;52.916;6.542;2022-08-11T16:23:19;3.28;;;1.25;;
57107;SDS011;42987;52.916;6.542;2022-08-11T16:25:53;4.93;;;1.50;;
57107;SDS011;42987;52.916;6.542;2022-08-11T16:28:21;4.30;;;1.73;;
57107;SDS011;42987;52.916;6.542;2022-08-11T16:30:51;3.20;;;1.50;;
57107;SDS011;42987;52.916;6.542;2022-08-11T16:33:19;5.25;;;1.30;;
57107;SDS011;42987;52.916;6.542;2022-08-11T16:35:48;4.18;;;1.50;;
57107;SDS011;42987;52.916;6.542;2022-08-11T16:38:34;2.63;;;1.00;;
57107;SDS011;42987;52.916;6.542;2022-08-11T16:41:08;3.90;;;1.35;;
57107;SDS011;42987;52.916;6.542;2022-08-11T16:43:40;4.07;;;1.30;;
57107;SDS011;42987;52.916;6.542;2022-08-11T16:46:27;4.47;;;1.27;;
57107;SDS011;42987;52.916;6.542;2022-08-11T16:49:20;5.63;;;1.30;;
57107;SDS011;42987;52.916;6.542;2022-08-11T16:51:50;2.20;;;1.30;;
57107;SDS011;42987;52.916;6.542;2022-08-11T16:54:17;3.10;;;1.40;;
57107;SDS011;42987;52.916;6.542;2022-08-11T16:56:51;3.95;;;1.42;;
57107;SDS011;42987;52.916;6.542;2022-08-11T16:59:31;2.30;;;1.48;;
57107;SDS011;42987;52.916;6.542;2022-08-11T17:02:09;3.00;;;1.52;;
57107;SDS011;42987;52.916;6.542;2022-08-11T17:04:59;3.92;;;1.60;;
57107;SDS011;42987;52.916;6.542;2022-08-11T17:07:52;2.88;;;1.35;;
57107;SDS011;42987;52.916;6.542;2022-08-11T17:10:40;4.07;;;1.70;;
57107;SDS011;42987;52.916;6.542;2022-08-11T17:13:47;2.90;;;1.30;;
57107;SDS011;42987;52.916;6.542;2022-08-11T17:16:26;2.75;;;1.55;;
57107;SDS011;42987;52.916;6.542;2022-08-11T17:19:15;2.45;;;1.38;;
57107;SDS011;42987;52.916;6.542;2022-08-11T17:21:46;5.13;;;1.58;;
57107;SDS011;42987;52.916;6.542;2022-08-11T17:24:36;5.93;;;2.17;;
57107;SDS011;42987;52.916;6.542;2022-08-11T17:27:09;4.90;;;1.67;;
57107;SDS011;42987;52.916;6.542;2022-08-11T17:29:45;4.85;;;1.70;;
57107;SDS011;42987;52.916;6.542;2022-08-11T17:32:24;4.22;;;1.80;;
57107;SDS011;42987;52.916;6.542;2022-08-11T17:35:14;5.57;;;1.58;;
57107;SDS011;42987;52.916;6.542;2022-08-11T17:40:30;2.55;;;1.40;;
57107;SDS011;42987;52.916;6.542;2022-08-11T17:43:07;3.38;;;1.73;;
57107;SDS011;42987;52.916;6.542;2022-08-11T17:45:52;4.65;;;1.67;;
57107;SDS011;42987;52.916;6.542;2022-08-11T17:48:31;3.63;;;1.60;;
57107;SDS011;42987;52.916;6.542;2022-08-11T17:51:04;4.00;;;2.08;;
57107;SDS011;42987;52.916;6.542;2022-08-11T17:53:42;3.88;;;1.70;;
57107;SDS011;42987;52.916;6.542;2022-08-11T17:56:29;2.55;;;1.48;;
57107;SDS011;42987;52.916;6.542;2022-08-11T17:59:15;4.03;;;1.58;;
57107;SDS011;42987;52.916;6.542;2022-08-11T18:02:02;7.53;;;1.80;;
57107;SDS011;42987;52.916;6.542;2022-08-11T18:04:49;3.63;;;1.60;;
57107;SDS011;42987;52.916;6.542;2022-08-11T18:07:17;3.55;;;1.67;;
57107;SDS011;42987;52.916;6.542;2022-08-11T18:13:09;5.05;;;1.58;;
57107;SDS011;42987;52.916;6.542;2022-08-11T18:15:53;5.85;;;1.70;;
57107;SDS011;42987;52.916;6.542;2022-08-11T18:18:38;3.88;;;1.70;;
57107;SDS011;42987;52.916;6.542;2022-08-11T18:21:23;4.13;;;1.60;;
57107;SDS011;42987;52.916;6.542;2022-08-11T18:26:57;3.33;;;1.48;;
57107;SDS011;42987;52.916;6.542;2022-08-11T18:29:48;3.33;;;1.70;;
57107;SDS011;42987;52.916;6.542;2022-08-11T18:32:35;5.40;;;1.73;;
57107;SDS011;42987;52.916;6.542;2022-08-11T18:35:20;3.50;;;1.70;;
57107;SDS011;42987;52.916;6.542;2022-08-11T18:38:08;3.53;;;1.65;;
57107;SDS011;42987;52.916;6.542;2022-08-11T18:40:55;6.13;;;2.28;;
57107;SDS011;42987;52.916;6.542;2022-08-11T18:43:41;3.22;;;1.77;;
57107;SDS011;42987;52.916;6.542;2022-08-11T18:46:32;4.38;;;2.10;;
57107;SDS011;42987;52.916;6.542;2022-08-11T18:49:26;4.30;;;2.05;;
57107;SDS011;42987;52.916;6.542;2022-08-11T18:52:16;5.10;;;1.77;;
57107;SDS011;42987;52.916;6.542;2022-08-11T18:55:02;4.93;;;1.90;;
57107;SDS011;42987;52.916;6.542;2022-08-11T18:57:51;4.35;;;1.95;;
57107;SDS011;42987;52.916;6.542;2022-08-11T19:00:37;5.07;;;1.70;;
57107;SDS011;42987;52.916;6.542;2022-08-11T19:03:24;4.10;;;1.95;;
57107;SDS011;42987;52.916;6.542;2022-08-11T19:06:11;3.13;;;1.83;;
57107;SDS011;42987;52.916;6.542;2022-08-11T19:08:58;4.78;;;1.75;;
57107;SDS011;42987;52.916;6.542;2022-08-11T19:11:45;6.78;;;2.20;;
57107;SDS011;42987;52.916;6.542;2022-08-11T19:14:31;7.68;;;5.57;;
57107;SDS011;42987;52.916;6.542;2022-08-11T19:17:17;4.97;;;2.00;;
57107;SDS011;42987;52.916;6.542;2022-08-11T19:20:04;7.07;;;1.98;;
57107;SDS011;42987;52.916;6.542;2022-08-11T19:22:54;4.30;;;2.20;;
57107;SDS011;42987;52.916;6.542;2022-08-11T19:25:40;5.05;;;2.00;;
57107;SDS011;42987;52.916;6.542;2022-08-11T19:28:26;2.95;;;1.85;;
57107;SDS011;42987;52.916;6.542;2022-08-11T19:31:12;4.90;;;1.88;;
57107;SDS011;42987;52.916;6.542;2022-08-11T19:33:58;4.25;;;1.90;;
57107;SDS011;42987;52.916;6.542;2022-08-11T19:36:43;6.82;;;2.22;;
57107;SDS011;42987;52.916;6.542;2022-08-11T19:39:29;7.15;;;2.33;;
57107;SDS011;42987;52.916;6.542;2022-08-11T19:42:14;6.47;;;2.00;;
57107;SDS011;42987;52.916;6.542;2022-08-11T19:45:00;5.15;;;2.17;;
57107;SDS011;42987;52.916;6.542;2022-08-11T19:47:46;5.38;;;2.35;;
57107;SDS011;42987;52.916;6.542;2022-08-11T19:50:31;4.50;;;2.08;;
57107;SDS011;42987;52.916;6.542;2022-08-11T19:53:18;4.65;;;2.10;;
57107;SDS011;42987;52.916;6.542;2022-08-11T19:56:03;3.47;;;2.00;;
57107;SDS011;42987;52.916;6.542;2022-08-11T19:58:50;2.75;;;1.83;;
57107;SDS011;42987;52.916;6.542;2022-08-11T20:01:38;5.40;;;2.25;;
57107;SDS011;42987;52.916;6.542;2022-08-11T20:04:23;3.55;;;1.85;;
57107;SDS011;42987;52.916;6.542;2022-08-11T20:07:08;4.93;;;2.10;;
57107;SDS011;42987;52.916;6.542;2022-08-11T20:09:58;6.88;;;2.38;;
57107;SDS011;42987;52.916;6.542;2022-08-11T20:12:48;3.00;;;2.13;;
57107;SDS011;42987;52.916;6.542;2022-08-11T20:15:33;4.85;;;2.00;;
57107;SDS011;42987;52.916;6.542;2022-08-11T20:18:22;4.53;;;2.42;;